createdAt,value
2023-02-21T00:00:10.019Z,1.00
2023-02-21T00:06:05.882Z,1.20
2023-02-21T00:08:53.288Z,1.10
2023-02-21T00:11:40.444Z,1.20
2023-02-21T00:14:27.621Z,1.00
2023-02-21T00:17:14.991Z,1.20
2023-02-21T00:20:02.273Z,1.10
2023-02-21T00:22:49.600Z,1.00
2023-02-21T00:25:36.920Z,0.80
2023-02-21T00:28:23.950Z,0.90
2023-02-21T00:31:11.001Z,1.00
2023-02-21T00:33:58.265Z,1.00
2023-02-21T00:36:45.431Z,1.30
2023-02-21T00:39:32.709Z,1.00
2023-02-21T00:42:19.867Z,1.00
2023-02-21T00:45:06.969Z,0.90
2023-02-21T00:47:54.324Z,0.80
2023-02-21T00:50:41.331Z,1.00
2023-02-21T00:53:28.704Z,1.00
2023-02-21T00:56:16.000Z,1.00
2023-02-21T00:59:02.737Z,1.20
2023-02-21T01:01:50.565Z,1.10
2023-02-21T01:04:37.696Z,0.90
2023-02-21T01:07:24.709Z,1.10
2023-02-21T01:10:12.025Z,1.30
2023-02-21T01:12:59.349Z,1.30
2023-02-21T01:15:46.029Z,1.20
2023-02-21T01:18:33.722Z,1.40
2023-02-21T01:21:23.321Z,1.20
2023-02-21T01:24:10.391Z,1.10
2023-02-21T01:26:58.084Z,1.20
2023-02-21T01:29:45.333Z,1.30
2023-02-21T01:32:32.603Z,1.00
2023-02-21T01:35:19.605Z,1.20
2023-02-21T01:38:06.689Z,1.30
2023-02-21T01:40:54.140Z,1.30
2023-02-21T01:43:44.096Z,1.40
2023-02-21T01:46:39.001Z,1.10
2023-02-21T01:49:36.451Z,1.40
2023-02-21T01:52:24.910Z,1.20
2023-02-21T01:55:14.173Z,1.30
2023-02-21T01:58:04.806Z,1.30
2023-02-21T02:00:52.615Z,1.50
2023-02-21T02:03:41.265Z,1.30
2023-02-21T02:06:33.403Z,1.20
2023-02-21T02:09:41.508Z,1.30
2023-02-21T02:12:37.430Z,1.40
2023-02-21T02:15:37.708Z,1.50
2023-02-21T02:18:07.466Z,1.40
2023-02-21T02:24:05.961Z,1.50
2023-02-21T02:27:21.527Z,1.50
2023-02-21T02:30:26.760Z,1.60
2023-02-21T02:33:30.627Z,1.60
2023-02-21T02:36:10.455Z,1.70
2023-02-21T02:39:22.866Z,1.50
2023-02-21T02:42:28.931Z,1.40
2023-02-21T02:45:06.121Z,1.50
2023-02-21T02:47:42.815Z,1.40
2023-02-21T02:50:13.146Z,1.60
2023-02-21T02:52:54.089Z,1.80
2023-02-21T02:55:40.490Z,1.70
2023-02-21T02:58:12.966Z,1.50
2023-02-21T03:00:50.448Z,1.60
2023-02-21T03:03:56.941Z,1.50
2023-02-21T03:06:37.479Z,1.60
2023-02-21T03:09:24.085Z,1.50
2023-02-21T03:12:19.825Z,1.60
2023-02-21T03:15:15.828Z,1.70
2023-02-21T03:18:01.417Z,1.40
2023-02-21T03:20:30.407Z,1.70
2023-02-21T03:23:03.090Z,1.70
2023-02-21T03:25:34.750Z,1.80
2023-02-21T03:28:04.966Z,1.90
2023-02-21T03:30:44.629Z,1.80
2023-02-21T03:33:13.189Z,1.60
2023-02-21T03:35:42.082Z,1.50
2023-02-21T03:38:11.382Z,1.60
2023-02-21T03:40:40.170Z,1.60
2023-02-21T03:43:08.762Z,1.70
2023-02-21T03:45:44.398Z,1.90
2023-02-21T03:48:26.177Z,1.70
2023-02-21T03:51:01.228Z,1.80
2023-02-21T03:53:33.305Z,1.70
2023-02-21T03:56:02.492Z,1.60
2023-02-21T03:58:38.470Z,1.80
2023-02-21T04:01:07.417Z,1.80
2023-02-21T04:03:36.230Z,1.90
2023-02-21T04:06:06.652Z,1.90
2023-02-21T04:11:04.333Z,2.00
2023-02-21T04:13:35.888Z,2.10
2023-02-21T04:16:05.532Z,2.20
2023-02-21T04:18:37.744Z,1.90
2023-02-21T04:21:07.881Z,2.10
2023-02-21T04:23:36.874Z,1.80
2023-02-21T04:26:06.485Z,1.80
2023-02-21T04:28:46.732Z,2.00
2023-02-21T04:31:17.653Z,1.70
2023-02-21T04:33:46.625Z,2.30
2023-02-21T04:36:20.305Z,1.80
2023-02-21T04:38:50.614Z,2.40
2023-02-21T04:41:19.779Z,2.60
2023-02-21T04:43:48.377Z,2.20
2023-02-21T04:46:19.440Z,2.40
2023-02-21T04:48:51.397Z,2.20
2023-02-21T04:51:24.099Z,2.30
2023-02-21T04:53:54.243Z,2.40
2023-02-21T04:56:26.267Z,2.40
2023-02-21T04:58:55.164Z,2.30
2023-02-21T05:01:28.529Z,2.30
2023-02-21T05:03:58.628Z,2.60
2023-02-21T05:06:30.047Z,2.50
2023-02-21T05:08:59.916Z,2.20
2023-02-21T05:11:28.494Z,2.20
2023-02-21T05:13:56.892Z,2.30
2023-02-21T05:16:25.971Z,2.30
2023-02-21T05:18:54.629Z,2.30
2023-02-21T05:21:24.245Z,2.20
2023-02-21T05:26:31.658Z,2.40
2023-02-21T05:29:00.160Z,2.60
2023-02-21T05:31:29.741Z,2.60
2023-02-21T05:33:58.688Z,2.20
2023-02-21T05:36:27.253Z,2.30
2023-02-21T05:38:56.571Z,2.20
2023-02-21T05:41:25.252Z,2.20
2023-02-21T05:43:54.434Z,2.50
2023-02-21T05:46:30.030Z,2.60
2023-02-21T05:49:00.606Z,2.60
2023-02-21T05:51:38.541Z,3.30
2023-02-21T05:54:10.061Z,2.50
2023-02-21T05:56:40.564Z,2.90
2023-02-21T05:59:10.479Z,2.90
2023-02-21T06:01:39.022Z,3.00
2023-02-21T06:04:10.456Z,3.10
2023-02-21T06:06:51.833Z,3.00
2023-02-21T06:09:20.809Z,3.00
2023-02-21T06:11:49.241Z,3.20
2023-02-21T06:14:20.851Z,2.80
2023-02-21T06:16:49.309Z,3.10
2023-02-21T06:19:19.027Z,2.90
2023-02-21T06:21:47.698Z,3.00
2023-02-21T06:24:16.152Z,2.80
2023-02-21T06:26:45.115Z,3.50
2023-02-21T06:29:13.780Z,2.70
2023-02-21T06:31:42.525Z,3.30
2023-02-21T06:34:11.501Z,3.20
2023-02-21T06:36:40.171Z,4.00
2023-02-21T06:39:10.976Z,3.60
2023-02-21T06:41:39.491Z,3.80
2023-02-21T06:44:07.932Z,3.80
2023-02-21T06:46:38.210Z,4.10
2023-02-21T06:49:07.119Z,4.00
2023-02-21T06:51:39.786Z,4.20
2023-02-21T06:54:08.265Z,4.10
2023-02-21T06:56:37.176Z,3.40
2023-02-21T06:59:05.740Z,3.60
2023-02-21T07:01:34.357Z,3.90
2023-02-21T07:04:03.025Z,4.60
2023-02-21T07:06:33.750Z,3.70
2023-02-21T07:09:02.562Z,4.10
2023-02-21T07:11:36.174Z,4.00
2023-02-21T07:14:05.091Z,3.90
2023-02-21T07:16:34.277Z,3.90
2023-02-21T07:19:02.828Z,4.10
2023-02-21T07:21:32.095Z,3.50
2023-02-21T07:24:00.876Z,3.40
2023-02-21T07:26:29.464Z,3.50
2023-02-21T07:28:57.959Z,3.70
2023-02-21T07:31:27.351Z,3.60
2023-02-21T07:33:56.294Z,4.00
2023-02-21T07:36:25.008Z,3.50
2023-02-21T07:38:53.522Z,3.60
2023-02-21T07:41:22.343Z,3.40
2023-02-21T07:43:51.390Z,4.00
2023-02-21T07:46:20.181Z,3.40
2023-02-21T07:48:48.889Z,3.30
2023-02-21T07:51:23.385Z,3.20
2023-02-21T07:53:51.861Z,3.00
2023-02-21T07:56:20.408Z,3.20
2023-02-21T07:58:49.066Z,3.00
2023-02-21T08:01:17.684Z,2.70
2023-02-21T08:03:46.215Z,2.80
2023-02-21T08:06:15.174Z,2.70
2023-02-21T08:08:44.381Z,2.60
2023-02-21T08:11:13.111Z,2.30
2023-02-21T08:13:41.788Z,2.30
2023-02-21T08:16:10.471Z,2.10
2023-02-21T08:18:39.018Z,2.50
2023-02-21T08:21:11.069Z,2.30
2023-02-21T08:23:39.866Z,2.40
2023-02-21T08:26:08.682Z,2.30
2023-02-21T08:28:37.604Z,2.30
2023-02-21T08:31:07.412Z,1.80
2023-02-21T08:36:05.468Z,2.10
2023-02-21T08:38:34.674Z,2.10
2023-02-21T08:41:04.714Z,2.10
2023-02-21T08:43:33.410Z,2.40
2023-02-21T08:46:03.076Z,2.30
2023-02-21T08:48:31.606Z,2.50
2023-02-21T08:51:00.049Z,2.90
2023-02-21T08:53:28.477Z,2.50
2023-02-21T08:55:56.906Z,2.30
2023-02-21T08:58:25.511Z,2.50
2023-02-21T09:00:54.134Z,2.50
2023-02-21T09:03:22.730Z,2.50
2023-02-21T09:05:51.170Z,2.30
2023-02-21T09:08:21.152Z,2.50
2023-02-21T09:10:49.669Z,2.60
2023-02-21T09:13:18.153Z,2.30
2023-02-21T09:15:46.787Z,3.30
2023-02-21T09:18:16.200Z,2.90
2023-02-21T09:20:45.973Z,2.70
2023-02-21T09:23:15.782Z,2.90
2023-02-21T09:25:44.343Z,2.90
2023-02-21T09:28:14.031Z,2.60
2023-02-21T09:30:42.838Z,2.30
2023-02-21T09:33:12.755Z,2.40
2023-02-21T09:35:41.358Z,1.90
2023-02-21T09:38:10.635Z,2.40
2023-02-21T09:41:01.973Z,2.10
2023-02-21T09:43:52.273Z,2.00
2023-02-21T09:46:49.290Z,2.50
2023-02-21T09:49:34.019Z,1.50
2023-02-21T09:52:03.393Z,1.70
